sensor_id;sensor_type;location;lat;lon;timestamp;pressure;altitude;pressure_sealevel;temperature;humidity
57847;BME280;43675;50.030;21.952;2022-08-11T00:01:13;99433.77;;;13.13;67.41
57847;BME280;43675;50.030;21.952;2022-08-11T00:03:55;99425.80;;;13.09;67.71
57847;BME280;43675;50.030;21.952;2022-08-11T00:06:30;99425.16;;;13.07;67.84
57847;BME280;43675;50.030;21.952;2022-08-11T00:08:57;99431.41;;;13.01;67.92
57847;BME280;43675;50.030;21.952;2022-08-11T00:11:35;99426.74;;;12.99;68.23
57847;BME280;43675;50.030;21.952;2022-08-11T00:14:02;99430.87;;;13.02;68.39
57847;BME280;43675;50.030;21.952;2022-08-11T00:16:29;99428.92;;;13.00;68.45
57847;BME280;43675;50.030;21.952;2022-08-11T00:18:57;99426.23;;;13.00;68.65
57847;BME280;43675;50.030;21.952;2022-08-11T00:21:25;99428.81;;;13.04;68.90
57847;BME280;43675;50.030;21.952;2022-08-11T00:24:00;99423.94;;;13.10;69.04
57847;BME280;43675;50.030;21.952;2022-08-11T00:26:27;99421.75;;;13.16;68.97
57847;BME280;43675;50.030;21.952;2022-08-11T00:29:09;99418.11;;;13.19;68.76
57847;BME280;43675;50.030;21.952;2022-08-11T00:31:36;99413.44;;;13.17;68.44
57847;BME280;43675;50.030;21.952;2022-08-11T00:34:05;99421.55;;;13.11;68.28
57847;BME280;43675;50.030;21.952;2022-08-11T00:36:47;99412.44;;;13.05;68.31
57847;BME280;43675;50.030;21.952;2022-08-11T00:39:10;99418.66;;;12.99;68.26
57847;BME280;43675;50.030;21.952;2022-08-11T00:41:41;99419.12;;;12.90;68.19
57847;BME280;43675;50.030;21.952;2022-08-11T00:49:50;99415.00;;;12.67;68.76
57847;BME280;43675;50.030;21.952;2022-08-11T01:06:35;99416.80;;;12.31;69.74
57847;BME280;43675;50.030;21.952;2022-08-11T01:09:31;99423.95;;;12.28;69.72
57847;BME280;43675;50.030;21.952;2022-08-11T01:12:29;99418.25;;;12.21;69.61
57847;BME280;43675;50.030;21.952;2022-08-11T01:38:24;99412.00;;;11.81;71.38
57847;BME280;43675;50.030;21.952;2022-08-11T01:46:51;99405.85;;;11.70;71.32
57847;BME280;43675;50.030;21.952;2022-08-11T01:52:01;99406.27;;;11.67;71.59
57847;BME280;43675;50.030;21.952;2022-08-11T01:54:32;99407.61;;;11.67;72.09
57847;BME280;43675;50.030;21.952;2022-08-11T01:57:19;99406.52;;;11.72;72.19
57847;BME280;43675;50.030;21.952;2022-08-11T01:59:45;99403.10;;;11.74;72.28
57847;BME280;43675;50.030;21.952;2022-08-11T02:04:58;99406.72;;;11.77;72.17
57847;BME280;43675;50.030;21.952;2022-08-11T02:07:48;99403.42;;;11.75;71.98
57847;BME280;43675;50.030;21.952;2022-08-11T02:13:21;99407.71;;;11.69;71.88
57847;BME280;43675;50.030;21.952;2022-08-11T02:15:49;99403.16;;;11.63;71.90
57847;BME280;43675;50.030;21.952;2022-08-11T02:20:55;99403.34;;;11.55;72.00
57847;BME280;43675;50.030;21.952;2022-08-11T02:26:15;99404.88;;;11.54;72.49
57847;BME280;43675;50.030;21.952;2022-08-11T02:29:10;99406.73;;;11.53;72.64
57847;BME280;43675;50.030;21.952;2022-08-11T02:37:21;99414.37;;;11.50;72.82
57847;BME280;43675;50.030;21.952;2022-08-11T02:42:48;99413.64;;;11.45;72.57
57847;BME280;43675;50.030;21.952;2022-08-11T02:48:14;99407.32;;;11.35;72.51
57847;BME280;43675;50.030;21.952;2022-08-11T02:53:52;99411.34;;;11.29;72.81
57847;BME280;43675;50.030;21.952;2022-08-11T03:01:27;99420.28;;;11.25;73.12
57847;BME280;43675;50.030;21.952;2022-08-11T03:03:54;99412.03;;;11.27;73.23
57847;BME280;43675;50.030;21.952;2022-08-11T03:09:03;99418.75;;;11.27;73.23
57847;BME280;43675;50.030;21.952;2022-08-11T03:14:33;99409.62;;;11.21;73.04
57847;BME280;43675;50.030;21.952;2022-08-11T03:17:01;99417.48;;;11.16;72.92
57847;BME280;43675;50.030;21.952;2022-08-11T03:22:29;99430.16;;;11.12;72.82
57847;BME280;43675;50.030;21.952;2022-08-11T03:25:28;99426.11;;;11.05;72.88
57847;BME280;43675;50.030;21.952;2022-08-11T03:33:37;99423.69;;;11.00;73.08
57847;BME280;43675;50.030;21.952;2022-08-11T03:55:14;99430.31;;;11.21;73.72
57847;BME280;43675;50.030;21.952;2022-08-11T03:58:01;99424.45;;;11.28;73.86
57847;BME280;43675;50.030;21.952;2022-08-11T04:20:28;99426.95;;;12.49;72.95
57847;BME280;43675;50.030;21.952;2022-08-11T04:23:23;99423.72;;;12.69;72.74
57847;BME280;43675;50.030;21.952;2022-08-11T04:34:26;99401.58;;;13.32;71.71
57847;BME280;43675;50.030;21.952;2022-08-11T04:40:08;99403.81;;;13.79;71.47
57847;BME280;43675;50.030;21.952;2022-08-11T04:48:45;99403.39;;;14.38;71.20
57847;BME280;43675;50.030;21.952;2022-08-11T05:11:30;99402.84;;;15.18;68.81
57847;BME280;43675;50.030;21.952;2022-08-11T05:14:29;99407.20;;;15.19;68.86
57847;BME280;43675;50.030;21.952;2022-08-11T05:17:05;99418.23;;;15.18;68.98
57847;BME280;43675;50.030;21.952;2022-08-11T05:19:27;99419.53;;;15.15;68.90
57847;BME280;43675;50.030;21.952;2022-08-11T05:21:55;99414.48;;;15.19;68.79
57847;BME280;43675;50.030;21.952;2022-08-11T05:24:23;99416.52;;;15.23;68.83
57847;BME280;43675;50.030;21.952;2022-08-11T05:26:51;99419.22;;;15.32;68.88
57847;BME280;43675;50.030;21.952;2022-08-11T05:32:11;99420.41;;;15.64;68.54
57847;BME280;43675;50.030;21.952;2022-08-11T05:34:47;99418.47;;;15.82;68.15
57847;BME280;43675;50.030;21.952;2022-08-11T05:37:19;99417.30;;;15.99;67.67
57847;BME280;43675;50.030;21.952;2022-08-11T05:39:48;99417.21;;;16.17;67.34
57847;BME280;43675;50.030;21.952;2022-08-11T05:42:16;99423.14;;;16.37;66.98
57847;BME280;43675;50.030;21.952;2022-08-11T05:44:47;99420.57;;;16.54;66.44
57847;BME280;43675;50.030;21.952;2022-08-11T05:47:23;99416.36;;;16.70;65.99
57847;BME280;43675;50.030;21.952;2022-08-11T05:49:49;99419.12;;;16.84;65.57
57847;BME280;43675;50.030;21.952;2022-08-11T05:52:22;99411.31;;;16.99;65.42
57847;BME280;43675;50.030;21.952;2022-08-11T05:54:45;99416.58;;;17.17;65.01
57847;BME280;43675;50.030;21.952;2022-08-11T05:57:19;99414.44;;;17.31;64.49
57847;BME280;43675;50.030;21.952;2022-08-11T05:59:46;99411.46;;;17.44;64.12
57847;BME280;43675;50.030;21.952;2022-08-11T06:02:19;99411.53;;;17.61;63.77
57847;BME280;43675;50.030;21.952;2022-08-11T06:04:45;99408.34;;;17.78;63.61
57847;BME280;43675;50.030;21.952;2022-08-11T06:07:13;99411.96;;;17.98;62.97
57847;BME280;43675;50.030;21.952;2022-08-11T06:12:16;99407.66;;;18.32;62.13
57847;BME280;43675;50.030;21.952;2022-08-11T06:14:53;99404.42;;;18.50;61.72
57847;BME280;43675;50.030;21.952;2022-08-11T06:17:27;99407.94;;;18.64;61.64
57847;BME280;43675;50.030;21.952;2022-08-11T06:20:07;99401.95;;;18.81;61.19
57847;BME280;43675;50.030;21.952;2022-08-11T06:22:34;99399.46;;;18.99;60.65
57847;BME280;43675;50.030;21.952;2022-08-11T06:25:02;99402.44;;;19.17;60.06
57847;BME280;43675;50.030;21.952;2022-08-11T06:27:31;99409.47;;;19.37;59.56
57847;BME280;43675;50.030;21.952;2022-08-11T06:29:58;99413.30;;;19.58;59.17
57847;BME280;43675;50.030;21.952;2022-08-11T06:32:28;99413.59;;;19.83;58.95
57847;BME280;43675;50.030;21.952;2022-08-11T06:38:12;99415.30;;;20.21;57.70
57847;BME280;43675;50.030;21.952;2022-08-11T06:40:57;99407.83;;;20.36;57.39
57847;BME280;43675;50.030;21.952;2022-08-11T06:43:24;99413.44;;;20.56;56.82
57847;BME280;43675;50.030;21.952;2022-08-11T06:46:04;99405.70;;;20.80;56.40
57847;BME280;43675;50.030;21.952;2022-08-11T06:48:26;99408.81;;;20.98;55.79
57847;BME280;43675;50.030;21.952;2022-08-11T06:50:56;99404.31;;;21.19;55.38
57847;BME280;43675;50.030;21.952;2022-08-11T06:53:23;99396.47;;;21.35;54.67
57847;BME280;43675;50.030;21.952;2022-08-11T06:55:49;99399.27;;;21.48;53.98
57847;BME280;43675;50.030;21.952;2022-08-11T06:58:17;99409.66;;;21.58;53.47
57847;BME280;43675;50.030;21.952;2022-08-11T07:00:46;99398.24;;;21.72;53.41
57847;BME280;43675;50.030;21.952;2022-08-11T07:03:15;99400.16;;;21.81;52.77
57847;BME280;43675;50.030;21.952;2022-08-11T07:05:53;99394.45;;;21.90;52.62
57847;BME280;43675;50.030;21.952;2022-08-11T07:14:01;99397.53;;;22.49;50.38
57847;BME280;43675;50.030;21.952;2022-08-11T07:16:30;99393.70;;;22.58;50.67
57847;BME280;43675;50.030;21.952;2022-08-11T07:19:05;99389.00;;;22.66;50.32
57847;BME280;43675;50.030;21.952;2022-08-11T07:21:33;99388.76;;;22.70;49.97
57847;BME280;43675;50.030;21.952;2022-08-11T07:24:02;99392.31;;;22.71;49.72
57847;BME280;43675;50.030;21.952;2022-08-11T07:26:35;99392.58;;;22.79;49.29
57847;BME280;43675;50.030;21.952;2022-08-11T07:29:04;99387.69;;;22.74;49.10
57847;BME280;43675;50.030;21.952;2022-08-11T07:31:34;99383.55;;;22.63;49.08
57847;BME280;43675;50.030;21.952;2022-08-11T07:34:21;99384.66;;;22.65;49.13
57847;BME280;43675;50.030;21.952;2022-08-11T07:36:52;99391.25;;;22.69;49.20
57847;BME280;43675;50.030;21.952;2022-08-11T07:39:23;99387.91;;;22.67;49.45
57847;BME280;43675;50.030;21.952;2022-08-11T07:41:52;99388.48;;;22.64;49.63
57847;BME280;43675;50.030;21.952;2022-08-11T07:44:20;99383.55;;;22.63;49.50
57847;BME280;43675;50.030;21.952;2022-08-11T07:46:48;99385.20;;;22.59;49.81
57847;BME280;43675;50.030;21.952;2022-08-11T07:49:15;99386.27;;;22.66;49.46
57847;BME280;43675;50.030;21.952;2022-08-11T07:51:42;99388.76;;;22.70;49.49
57847;BME280;43675;50.030;21.952;2022-08-11T07:54:09;99384.66;;;22.70;49.59
57847;BME280;43675;50.030;21.952;2022-08-11T07:56:37;99380.84;;;22.69;49.55
57847;BME280;43675;50.030;21.952;2022-08-11T07:59:11;99384.39;;;22.61;49.44
57847;BME280;43675;50.030;21.952;2022-08-11T08:01:37;99380.82;;;22.51;49.62
57847;BME280;43675;50.030;21.952;2022-08-11T08:04:05;99378.64;;;22.43;49.85
57847;BME280;43675;50.030;21.952;2022-08-11T08:06:32;99386.30;;;22.36;50.04
57847;BME280;43675;50.030;21.952;2022-08-11T08:09:00;99377.56;;;22.29;50.12
57847;BME280;43675;50.030;21.952;2022-08-11T08:11:26;99382.20;;;22.23;50.29
57847;BME280;43675;50.030;21.952;2022-08-11T08:13:52;99383.84;;;22.16;50.08
57847;BME280;43675;50.030;21.952;2022-08-11T08:16:19;99379.19;;;22.12;49.83
57847;BME280;43675;50.030;21.952;2022-08-11T08:18:52;99383.56;;;22.08;49.77
57847;BME280;43675;50.030;21.952;2022-08-11T08:21:18;99378.63;;;22.00;49.70
57847;BME280;43675;50.030;21.952;2022-08-11T08:23:45;99386.30;;;21.95;50.03
57847;BME280;43675;50.030;21.952;2022-08-11T08:26:13;99388.48;;;22.01;49.51
57847;BME280;43675;50.030;21.952;2022-08-11T08:28:47;99377.83;;;22.09;49.40
57847;BME280;43675;50.030;21.952;2022-08-11T08:31:13;99374.81;;;22.24;48.96
57847;BME280;43675;50.030;21.952;2022-08-11T08:33:40;99369.08;;;22.40;48.57
57847;BME280;43675;50.030;21.952;2022-08-11T08:36:06;99364.97;;;22.58;47.87
57847;BME280;43675;50.030;21.952;2022-08-11T08:38:33;99367.41;;;22.80;47.69
57847;BME280;43675;50.030;21.952;2022-08-11T08:40:59;99365.16;;;23.04;47.37
57847;BME280;43675;50.030;21.952;2022-08-11T08:43:25;99365.28;;;23.38;46.91
57847;BME280;43675;50.030;21.952;2022-08-11T08:45:53;99362.41;;;23.69;46.40
57847;BME280;43675;50.030;21.952;2022-08-11T08:48:22;99358.41;;;23.95;45.70
57847;BME280;43675;50.030;21.952;2022-08-11T08:50:52;99367.31;;;24.18;45.11
57847;BME280;43675;50.030;21.952;2022-08-11T08:53:22;99364.41;;;24.36;44.51
57847;BME280;43675;50.030;21.952;2022-08-11T08:55:49;99357.17;;;24.47;43.87
57847;BME280;43675;50.030;21.952;2022-08-11T08:58:18;99360.11;;;24.56;43.59
57847;BME280;43675;50.030;21.952;2022-08-11T09:00:45;99351.17;;;24.72;43.46
57847;BME280;43675;50.030;21.952;2022-08-11T09:03:20;99356.75;;;24.93;42.81
57847;BME280;43675;50.030;21.952;2022-08-11T09:05:47;99351.58;;;25.13;42.23
57847;BME280;43675;50.030;21.952;2022-08-11T09:08:16;99345.66;;;25.24;41.39
57847;BME280;43675;50.030;21.952;2022-08-11T09:10:41;99343.84;;;25.15;41.19
57847;BME280;43675;50.030;21.952;2022-08-11T09:13:07;99345.45;;;24.97;41.39
57847;BME280;43675;50.030;21.952;2022-08-11T09:15:33;99337.86;;;24.84;41.68
57847;BME280;43675;50.030;21.952;2022-08-11T09:18:00;99326.59;;;24.88;42.04
57847;BME280;43675;50.030;21.952;2022-08-11T09:20:35;99334.70;;;24.98;41.63
57847;BME280;43675;50.030;21.952;2022-08-11T09:23:06;99323.34;;;25.07;41.66
57847;BME280;43675;50.030;21.952;2022-08-11T09:25:33;99315.63;;;25.30;41.73
57847;BME280;43675;50.030;21.952;2022-08-11T09:28:00;99308.88;;;25.63;41.20
57847;BME280;43675;50.030;21.952;2022-08-11T09:30:27;99313.42;;;25.88;40.36
57847;BME280;43675;50.030;21.952;2022-08-11T09:32:55;99321.74;;;26.02;39.81
57847;BME280;43675;50.030;21.952;2022-08-11T09:35:21;99316.38;;;26.11;39.58
57847;BME280;43675;50.030;21.952;2022-08-11T09:37:48;99326.41;;;26.20;39.38
57847;BME280;43675;50.030;21.952;2022-08-11T09:40:20;99314.64;;;26.33;39.25
57847;BME280;43675;50.030;21.952;2022-08-11T09:42:47;99312.38;;;26.52;39.94
57847;BME280;43675;50.030;21.952;2022-08-11T09:45:15;99316.53;;;26.79;38.67
57847;BME280;43675;50.030;21.952;2022-08-11T09:47:42;99313.81;;;27.06;38.09
57847;BME280;43675;50.030;21.952;2022-08-11T09:50:09;99312.46;;;27.31;37.79
57847;BME280;43675;50.030;21.952;2022-08-11T09:52:37;99314.25;;;27.52;37.21
57847;BME280;43675;50.030;21.952;2022-08-11T09:55:05;99315.03;;;27.52;36.66
57847;BME280;43675;50.030;21.952;2022-08-11T09:57:31;99326.80;;;27.31;38.17
57847;BME280;43675;50.030;21.952;2022-08-11T09:59:57;99321.54;;;26.77;38.38
57847;BME280;43675;50.030;21.952;2022-08-11T10:02:29;99331.80;;;26.09;39.90
57847;BME280;43675;50.030;21.952;2022-08-11T10:05:03;99332.55;;;25.40;41.57
57847;BME280;43675;50.030;21.952;2022-08-11T10:07:28;99329.13;;;24.79;42.28
57847;BME280;43675;50.030;21.952;2022-08-11T10:10:02;99328.85;;;24.23;44.14
57847;BME280;43675;50.030;21.952;2022-08-11T10:12:33;99327.30;;;23.76;45.87
57847;BME280;43675;50.030;21.952;2022-08-11T10:15:11;99334.06;;;23.39;46.86
57847;BME280;43675;50.030;21.952;2022-08-11T10:17:43;99342.89;;;23.21;47.86
57847;BME280;43675;50.030;21.952;2022-08-11T10:20:19;99339.67;;;23.06;49.02
57847;BME280;43675;50.030;21.952;2022-08-11T10:22:45;99344.08;;;23.05;49.17
57847;BME280;43675;50.030;21.952;2022-08-11T10:25:12;99337.78;;;23.04;48.89
57847;BME280;43675;50.030;21.952;2022-08-11T10:27:41;99336.44;;;22.94;48.97
57847;BME280;43675;50.030;21.952;2022-08-11T10:30:09;99341.95;;;22.84;49.18
57847;BME280;43675;50.030;21.952;2022-08-11T10:32:36;99339.24;;;22.72;49.78
57847;BME280;43675;50.030;21.952;2022-08-11T10:35:03;99340.32;;;22.63;49.78
57847;BME280;43675;50.030;21.952;2022-08-11T10:37:29;99342.79;;;22.54;49.78
57847;BME280;43675;50.030;21.952;2022-08-11T10:39:55;99343.91;;;22.48;49.69
57847;BME280;43675;50.030;21.952;2022-08-11T10:42:22;99335.70;;;22.43;50.37
57847;BME280;43675;50.030;21.952;2022-08-11T10:44:50;99331.88;;;22.49;49.96
57847;BME280;43675;50.030;21.952;2022-08-11T10:47:17;99326.39;;;22.57;49.72
57847;BME280;43675;50.030;21.952;2022-08-11T10:49:44;99322.25;;;22.67;49.64
57847;BME280;43675;50.030;21.952;2022-08-11T10:52:10;99315.95;;;22.84;49.58
57847;BME280;43675;50.030;21.952;2022-08-11T10:54:37;99323.52;;;23.13;49.13
57847;BME280;43675;50.030;21.952;2022-08-11T10:57:04;99309.69;;;23.40;49.18
57847;BME280;43675;50.030;21.952;2022-08-11T10:59:37;99313.13;;;23.64;48.01
57847;BME280;43675;50.030;21.952;2022-08-11T11:02:13;99312.41;;;23.84;47.78
57847;BME280;43675;50.030;21.952;2022-08-11T11:07:37;99316.88;;;24.45;46.14
57847;BME280;43675;50.030;21.952;2022-08-11T11:10:05;99311.45;;;24.64;45.38
57847;BME280;43675;50.030;21.952;2022-08-11T11:12:38;99306.70;;;24.72;45.10
57847;BME280;43675;50.030;21.952;2022-08-11T11:15:03;99303.26;;;24.88;44.57
57847;BME280;43675;50.030;21.952;2022-08-11T11:17:34;99289.06;;;25.05;44.43
57847;BME280;43675;50.030;21.952;2022-08-11T11:19:59;99296.88;;;25.16;44.28
57847;BME280;43675;50.030;21.952;2022-08-11T11:22:33;99294.34;;;25.20;44.23
57847;BME280;43675;50.030;21.952;2022-08-11T11:28:02;99289.91;;;25.21;44.17
57847;BME280;43675;50.030;21.952;2022-08-11T11:30:31;99283.87;;;25.22;44.18
57847;BME280;43675;50.030;21.952;2022-08-11T11:33:19;99290.28;;;25.15;44.27
57847;BME280;43675;50.030;21.952;2022-08-11T11:38:27;99287.06;;;24.89;44.07
57847;BME280;43675;50.030;21.952;2022-08-11T11:40:53;99279.16;;;24.80;44.52
57847;BME280;43675;50.030;21.952;2022-08-11T11:43:19;99280.21;;;24.84;44.99
57847;BME280;43675;50.030;21.952;2022-08-11T11:45:45;99268.80;;;24.98;44.97
57847;BME280;43675;50.030;21.952;2022-08-11T11:48:11;99260.17;;;25.28;43.83
57847;BME280;43675;50.030;21.952;2022-08-11T11:50:37;99256.13;;;25.61;42.98
57847;BME280;43675;50.030;21.952;2022-08-11T11:53:06;99248.94;;;25.97;42.51
57847;BME280;43675;50.030;21.952;2022-08-11T11:55:32;99249.97;;;26.33;41.67
57847;BME280;43675;50.030;21.952;2022-08-11T11:58:00;99237.34;;;26.60;41.37
57847;BME280;43675;50.030;21.952;2022-08-11T12:00:33;99230.83;;;26.69;40.70
57847;BME280;43675;50.030;21.952;2022-08-11T12:03:01;99224.64;;;26.75;40.82
57847;BME280;43675;50.030;21.952;2022-08-11T12:05:27;99226.74;;;26.80;40.91
57847;BME280;43675;50.030;21.952;2022-08-11T12:07:55;99224.34;;;26.90;40.94
57847;BME280;43675;50.030;21.952;2022-08-11T12:10:21;99222.80;;;26.98;40.37
57847;BME280;43675;50.030;21.952;2022-08-11T12:12:47;99222.79;;;27.11;40.14
57847;BME280;43675;50.030;21.952;2022-08-11T12:15:14;99220.59;;;27.36;40.09
57847;BME280;43675;50.030;21.952;2022-08-11T12:17:39;99224.84;;;27.55;39.97
57847;BME280;43675;50.030;21.952;2022-08-11T12:20:06;99220.70;;;27.78;39.28
57847;BME280;43675;50.030;21.952;2022-08-11T12:22:33;99226.31;;;28.06;38.13
57847;BME280;43675;50.030;21.952;2022-08-11T12:25:06;99224.24;;;28.00;37.05
57847;BME280;43675;50.030;21.952;2022-08-11T12:27:32;99217.86;;;27.80;38.32
57847;BME280;43675;50.030;21.952;2022-08-11T12:30:00;99224.57;;;27.77;37.65
57847;BME280;43675;50.030;21.952;2022-08-11T12:32:30;99228.78;;;27.38;37.23
57847;BME280;43675;50.030;21.952;2022-08-11T12:34:56;99215.27;;;26.49;37.94
57847;BME280;43675;50.030;21.952;2022-08-11T12:37:29;99219.11;;;25.88;39.91
57847;BME280;43675;50.030;21.952;2022-08-11T12:39:55;99215.84;;;25.54;40.63
57847;BME280;43675;50.030;21.952;2022-08-11T12:42:21;99219.41;;;25.35;41.84
57847;BME280;43675;50.030;21.952;2022-08-11T12:44:47;99217.71;;;25.37;41.87
57847;BME280;43675;50.030;21.952;2022-08-11T12:47:16;99215.02;;;25.34;41.33
57847;BME280;43675;50.030;21.952;2022-08-11T12:49:47;99212.55;;;25.33;41.29
57847;BME280;43675;50.030;21.952;2022-08-11T12:52:20;99209.73;;;25.38;40.33
57847;BME280;43675;50.030;21.952;2022-08-11T12:55:08;99204.31;;;25.33;39.79
57847;BME280;43675;50.030;21.952;2022-08-11T12:57:38;99209.70;;;25.22;40.06
57847;BME280;43675;50.030;21.952;2022-08-11T13:00:13;99207.89;;;25.15;40.49
57847;BME280;43675;50.030;21.952;2022-08-11T13:02:47;99199.65;;;25.15;40.18
57847;BME280;43675;50.030;21.952;2022-08-11T13:05:13;99201.64;;;25.09;40.33
57847;BME280;43675;50.030;21.952;2022-08-11T13:07:43;99198.72;;;25.03;40.27
57847;BME280;43675;50.030;21.952;2022-08-11T13:10:12;99196.02;;;25.01;39.80
57847;BME280;43675;50.030;21.952;2022-08-11T13:12:39;99192.73;;;24.99;39.55
57847;BME280;43675;50.030;21.952;2022-08-11T13:15:06;99191.68;;;24.97;39.54
57847;BME280;43675;50.030;21.952;2022-08-11T13:17:32;99195.09;;;25.08;39.96
57847;BME280;43675;50.030;21.952;2022-08-11T13:19:58;99183.27;;;25.26;39.59
57847;BME280;43675;50.030;21.952;2022-08-11T13:22:25;99185.08;;;25.52;39.67
57847;BME280;43675;50.030;21.952;2022-08-11T13:24:52;99176.89;;;25.81;39.92
57847;BME280;43675;50.030;21.952;2022-08-11T13:27:18;99168.42;;;26.08;39.29
57847;BME280;43675;50.030;21.952;2022-08-11T13:29:45;99161.11;;;26.17;38.90
57847;BME280;43675;50.030;21.952;2022-08-11T13:32:12;99158.33;;;26.19;39.29
57847;BME280;43675;50.030;21.952;2022-08-11T13:34:39;99157.48;;;26.21;38.26
57847;BME280;43675;50.030;21.952;2022-08-11T13:37:05;99164.66;;;26.20;37.64
57847;BME280;43675;50.030;21.952;2022-08-11T13:39:33;99156.22;;;26.14;37.31
57847;BME280;43675;50.030;21.952;2022-08-11T13:42:01;99154.58;;;26.13;37.13
57847;BME280;43675;50.030;21.952;2022-08-11T13:44:29;99151.74;;;26.18;37.50
57847;BME280;43675;50.030;21.952;2022-08-11T13:47:05;99145.65;;;26.48;37.37
57847;BME280;43675;50.030;21.952;2022-08-11T13:49:36;99143.73;;;26.87;36.47
57847;BME280;43675;50.030;21.952;2022-08-11T13:52:04;99152.98;;;27.05;37.36
57847;BME280;43675;50.030;21.952;2022-08-11T13:54:31;99156.42;;;26.86;37.99
57847;BME280;43675;50.030;21.952;2022-08-11T13:57:07;99163.47;;;26.51;38.47
57847;BME280;43675;50.030;21.952;2022-08-11T13:59:34;99188.15;;;26.12;40.31
57847;BME280;43675;50.030;21.952;2022-08-11T14:02:03;99191.19;;;25.65;42.11
57847;BME280;43675;50.030;21.952;2022-08-11T14:04:43;99234.42;;;24.79;43.62
57847;BME280;43675;50.030;21.952;2022-08-11T14:07:10;99177.66;;;22.99;48.23
57847;BME280;43675;50.030;21.952;2022-08-11T14:09:44;99172.32;;;21.54;51.34
57847;BME280;43675;50.030;21.952;2022-08-11T14:12:23;99173.48;;;20.53;54.21
57847;BME280;43675;50.030;21.952;2022-08-11T14:17:33;99171.91;;;19.42;58.40
57847;BME280;43675;50.030;21.952;2022-08-11T14:20:05;99176.20;;;19.06;59.20
57847;BME280;43675;50.030;21.952;2022-08-11T14:22:33;99180.03;;;18.80;61.14
57847;BME280;43675;50.030;21.952;2022-08-11T14:25:00;99191.11;;;18.52;62.70
57847;BME280;43675;50.030;21.952;2022-08-11T14:27:34;99191.11;;;18.52;62.70
57847;BME280;43675;50.030;21.952;2022-08-11T14:29:59;99232.27;;;18.41;63.40
57847;BME280;43675;50.030;21.952;2022-08-11T14:32:26;99268.80;;;18.31;64.08
57847;BME280;43675;50.030;21.952;2022-08-11T14:34:52;99274.66;;;18.23;64.44
57847;BME280;43675;50.030;21.952;2022-08-11T14:37:20;99266.39;;;18.16;64.51
57847;BME280;43675;50.030;21.952;2022-08-11T14:39:52;99257.52;;;18.04;64.56
57847;BME280;43675;50.030;21.952;2022-08-11T14:42:20;99261.97;;;17.93;64.80
57847;BME280;43675;50.030;21.952;2022-08-11T14:44:48;99253.06;;;17.78;65.02
57847;BME280;43675;50.030;21.952;2022-08-11T14:47:16;99255.89;;;17.69;65.55
57847;BME280;43675;50.030;21.952;2022-08-11T14:49:49;99257.45;;;17.65;65.75
57847;BME280;43675;50.030;21.952;2022-08-11T14:52:16;99255.27;;;17.65;66.21
57847;BME280;43675;50.030;21.952;2022-08-11T14:54:44;99249.01;;;17.64;66.30
57847;BME280;43675;50.030;21.952;2022-08-11T14:57:11;99239.77;;;17.63;66.51
57847;BME280;43675;50.030;21.952;2022-08-11T14:59:37;99238.98;;;17.65;66.61
57847;BME280;43675;50.030;21.952;2022-08-11T15:02:04;99233.84;;;17.66;66.48
57847;BME280;43675;50.030;21.952;2022-08-11T15:04:31;99234.17;;;17.69;66.39
57847;BME280;43675;50.030;21.952;2022-08-11T15:06:57;99236.98;;;17.74;66.05
57847;BME280;43675;50.030;21.952;2022-08-11T15:09:30;99241.08;;;17.77;66.31
57847;BME280;43675;50.030;21.952;2022-08-11T15:11:57;99234.61;;;17.80;66.40
57847;BME280;43675;50.030;21.952;2022-08-11T15:14:24;99240.73;;;17.87;66.60
57847;BME280;43675;50.030;21.952;2022-08-11T15:16:50;99245.45;;;17.94;66.50
57847;BME280;43675;50.030;21.952;2022-08-11T15:19:17;99250.40;;;18.00;66.45
57847;BME280;43675;50.030;21.952;2022-08-11T15:21:44;99257.81;;;18.05;66.45
57847;BME280;43675;50.030;21.952;2022-08-11T15:24:10;99258.45;;;18.12;66.87
57847;BME280;43675;50.030;21.952;2022-08-11T15:26:38;99252.33;;;18.19;66.90
57847;BME280;43675;50.030;21.952;2022-08-11T15:29:04;99251.53;;;18.21;66.62
57847;BME280;43675;50.030;21.952;2022-08-11T15:31:30;99245.86;;;18.22;66.75
57847;BME280;43675;50.030;21.952;2022-08-11T15:34:00;99253.19;;;18.22;66.92
57847;BME280;43675;50.030;21.952;2022-08-11T15:36:28;99249.32;;;18.18;66.88
57847;BME280;43675;50.030;21.952;2022-08-11T15:39:00;99245.08;;;18.08;67.10
57847;BME280;43675;50.030;21.952;2022-08-11T15:41:47;99236.29;;;18.01;67.35
57847;BME280;43675;50.030;21.952;2022-08-11T15:44:14;99230.75;;;17.93;67.14
57847;BME280;43675;50.030;21.952;2022-08-11T15:46:43;99224.91;;;17.84;67.26
57847;BME280;43675;50.030;21.952;2022-08-11T15:49:33;99225.23;;;17.88;67.02
57847;BME280;43675;50.030;21.952;2022-08-11T15:52:07;99232.31;;;17.89;66.57
57847;BME280;43675;50.030;21.952;2022-08-11T15:54:39;99244.03;;;17.92;66.65
57847;BME280;43675;50.030;21.952;2022-08-11T15:57:05;99241.16;;;17.99;66.38
57847;BME280;43675;50.030;21.952;2022-08-11T15:59:34;99244.52;;;18.06;66.51
57847;BME280;43675;50.030;21.952;2022-08-11T16:02:03;99243.19;;;18.08;66.89
57847;BME280;43675;50.030;21.952;2022-08-11T16:04:36;99250.48;;;18.05;67.33
57847;BME280;43675;50.030;21.952;2022-08-11T16:07:06;99244.97;;;18.00;67.61
57847;BME280;43675;50.030;21.952;2022-08-11T16:09:49;99234.05;;;17.95;67.75
57847;BME280;43675;50.030;21.952;2022-08-11T16:12:22;99237.80;;;17.91;67.96
57847;BME280;43675;50.030;21.952;2022-08-11T16:14:50;99240.94;;;17.83;68.23
57847;BME280;43675;50.030;21.952;2022-08-11T16:17:18;99238.95;;;17.79;68.19
57847;BME280;43675;50.030;21.952;2022-08-11T16:19:48;99237.27;;;17.75;68.31
57847;BME280;43675;50.030;21.952;2022-08-11T16:22:19;99243.23;;;17.75;68.50
57847;BME280;43675;50.030;21.952;2022-08-11T16:24:44;99242.41;;;17.74;68.43